Time;durP1;ratioP1;P1;durP2;ratioP2;P2;SDS_P1;SDS_P2;PMS_P1;PMS_P2;Temp;Humidity;BMP_temperature;BMP_pressure;BME280_temperature;BME280_humidity;BME280_pressure;Samples;Min_cycle;Max_cycle;Signal;HPM_P1;HPM_P2
2021/07/02 00:01:03;;;;;;;43.10;22.00;;;;;;;;;;5033367;28;20499;-61
2021/07/02 00:03:30;;;;;;;36.30;21.30;;;;;;;;;;5033277;28;20495;-61
2021/07/02 00:05:57;;;;;;;45.47;21.90;;;;;;;;;;5035267;28;20460;-62
2021/07/02 00:08:27;;;;;;;33.40;21.27;;;;;;;;;;5032928;28;20934;-62
2021/07/02 00:10:54;;;;;;;33.70;20.73;;;;;;;;;;5033728;28;20448;-63
2021/07/02 00:13:22;;;;;;;40.53;22.10;;;;;;;;;;5033058;28;20886;-63
2021/07/02 00:15:50;;;;;;;39.73;19.23;;;;;;;;;;5033103;28;20465;-63
2021/07/02 00:18:17;;;;;;;38.77;19.67;;;;;;;;;;5033173;28;20457;-63
2021/07/02 00:20:44;;;;;;;36.77;20.50;;;;;;;;;;5033183;28;20445;-63
2021/07/02 00:23:12;;;;;;;37.63;18.97;;;;;;;;;;5033606;28;20440;-63
2021/07/02 00:25:39;;;;;;;31.83;17.27;;;;;;;;;;5037198;28;20480;-62
2021/07/02 00:28:06;;;;;;;31.77;20.23;;;;;;;;;;5036910;28;20453;-63
2021/07/02 00:30:36;;;;;;;33.73;20.37;;;;;;;;;;5037184;28;20445;-63
2021/07/02 00:33:03;;;;;;;34.40;20.97;;;;;;;;;;5037257;28;20910;-63
2021/07/02 00:35:31;;;;;;;34.10;20.20;;;;;;;;;;5036792;28;20996;-63
2021/07/02 00:37:58;;;;;;;37.47;21.23;;;;;;;;;;5037344;28;20421;-63
2021/07/02 00:40:25;;;;;;;45.33;23.23;;;;;;;;;;5037331;28;20991;-62
2021/07/02 00:42:53;;;;;;;33.57;21.23;;;;;;;;;;5037154;28;20441;-62
2021/07/02 00:45:20;;;;;;;42.43;21.77;;;;;;;;;;5037177;28;20524;-63
2021/07/02 00:47:48;;;;;;;35.73;21.23;;;;;;;;;;5037858;28;20502;-63
2021/07/02 00:50:16;;;;;;;43.57;22.10;;;;;;;;;;5036558;28;20453;-63
2021/07/02 00:52:43;;;;;;;36.77;22.20;;;;;;;;;;5036598;28;20480;-64
2021/07/02 00:55:11;;;;;;;39.97;21.83;;;;;;;;;;5036680;28;20514;-63
2021/07/02 00:57:39;;;;;;;37.17;21.40;;;;;;;;;;5036254;28;20564;-63
2021/07/02 01:00:07;;;;;;;36.17;20.30;;;;;;;;;;5036725;28;20480;-63
2021/07/02 01:02:34;;;;;;;45.13;21.30;;;;;;;;;;5036319;28;20476;-63
2021/07/02 01:05:03;;;;;;;47.17;23.00;;;;;;;;;;5036205;28;20502;-63
2021/07/02 01:07:30;;;;;;;44.40;22.40;;;;;;;;;;5036073;28;20884;-63
2021/07/02 01:09:57;;;;;;;42.77;22.53;;;;;;;;;;5036109;28;20936;-63
2021/07/02 01:12:25;;;;;;;45.90;21.43;;;;;;;;;;5035990;28;20452;-63
2021/07/02 01:14:52;;;;;;;39.87;21.03;;;;;;;;;;5036320;28;20510;-63
2021/07/02 01:17:20;;;;;;;39.50;21.57;;;;;;;;;;5036197;28;20468;-63
2021/07/02 01:19:48;;;;;;;39.53;22.83;;;;;;;;;;5036438;28;20452;-63
2021/07/02 01:22:22;;;;;;;43.30;23.80;;;;;;;;;;5035926;28;20868;-63
2021/07/02 01:24:49;;;;;;;39.10;21.33;;;;;;;;;;5035896;28;20425;-63
2021/07/02 01:27:16;;;;;;;36.47;20.33;;;;;;;;;;5035771;28;21007;-63
2021/07/02 01:29:44;;;;;;;39.03;22.30;;;;;;;;;;5035806;28;20941;-63
2021/07/02 01:32:11;;;;;;;45.07;21.60;;;;;;;;;;5035746;28;20951;-63
2021/07/02 01:34:39;;;;;;;44.17;23.17;;;;;;;;;;5037785;28;20492;-63
2021/07/02 01:37:08;;;;;;;39.90;21.30;;;;;;;;;;5036933;28;20513;-63
2021/07/02 01:39:37;;;;;;;51.10;21.80;;;;;;;;;;5036014;28;20522;-63
2021/07/02 01:42:05;;;;;;;35.97;20.90;;;;;;;;;;5036161;28;20794;-63
2021/07/02 01:44:32;;;;;;;43.13;21.17;;;;;;;;;;5036015;28;20495;-62
2021/07/02 01:47:00;;;;;;;33.50;20.90;;;;;;;;;;5036108;28;20464;-62
2021/07/02 01:49:27;;;;;;;45.07;22.27;;;;;;;;;;5035704;28;20539;-62
2021/07/02 01:51:54;;;;;;;38.03;21.37;;;;;;;;;;5035855;28;20499;-62
2021/07/02 01:54:21;;;;;;;41.43;23.03;;;;;;;;;;5036709;28;20480;-62
2021/07/02 01:56:50;;;;;;;41.53;20.70;;;;;;;;;;5035421;28;20461;-62
2021/07/02 01:59:18;;;;;;;41.77;21.50;;;;;;;;;;5035450;28;20865;-63
2021/07/02 02:01:45;;;;;;;42.87;21.40;;;;;;;;;;5035585;28;20449;-63
2021/07/02 02:04:13;;;;;;;40.23;21.60;;;;;;;;;;5035479;28;20444;-63
2021/07/02 02:06:40;;;;;;;41.57;22.00;;;;;;;;;;5035707;28;20468;-62
2021/07/02 02:09:08;;;;;;;44.93;22.10;;;;;;;;;;5035340;28;20445;-60
2021/07/02 02:11:36;;;;;;;38.33;21.53;;;;;;;;;;5035320;28;20498;-63
2021/07/02 02:14:10;;;;;;;45.10;22.17;;;;;;;;;;5035102;28;20501;-63
2021/07/02 02:16:37;;;;;;;41.93;21.40;;;;;;;;;;5035265;28;20476;-63
2021/07/02 02:19:04;;;;;;;43.77;21.63;;;;;;;;;;5034891;28;20444;-62
2021/07/02 02:21:31;;;;;;;34.20;22.60;;;;;;;;;;5035115;28;20441;-62
2021/07/02 02:23:59;;;;;;;39.73;21.90;;;;;;;;;;5035084;28;20445;-63
2021/07/02 02:26:26;;;;;;;30.47;21.97;;;;;;;;;;5034943;28;20480;-62
2021/07/02 02:28:53;;;;;;;39.30;22.97;;;;;;;;;;5034990;28;20444;-63
2021/07/02 02:31:22;;;;;;;40.00;22.60;;;;;;;;;;5035186;28;20445;-63
2021/07/02 02:33:49;;;;;;;48.50;21.57;;;;;;;;;;5034810;28;20477;-63
2021/07/02 02:36:17;;;;;;;33.13;19.83;;;;;;;;;;5034539;28;20485;-61
2021/07/02 02:38:44;;;;;;;37.30;21.27;;;;;;;;;;5034834;28;20519;-63
2021/07/02 02:41:11;;;;;;;42.13;21.87;;;;;;;;;;5034325;28;20457;-62
2021/07/02 02:43:38;;;;;;;38.33;21.00;;;;;;;;;;5034710;28;20495;-63
2021/07/02 02:46:06;;;;;;;41.73;20.77;;;;;;;;;;5033942;28;20472;-63
2021/07/02 02:48:34;;;;;;;39.60;21.13;;;;;;;;;;5033560;28;20497;-63
2021/07/02 02:51:02;;;;;;;39.13;21.60;;;;;;;;;;5034586;28;20452;-63
2021/07/02 02:53:29;;;;;;;36.27;21.63;;;;;;;;;;5034428;28;20983;-64
2021/07/02 02:55:56;;;;;;;31.83;21.53;;;;;;;;;;5034040;28;21050;-63
2021/07/02 02:58:23;;;;;;;40.30;22.00;;;;;;;;;;5034073;28;20449;-62
2021/07/02 03:00:51;;;;;;;37.07;21.87;;;;;;;;;;5034434;28;20441;-61
2021/07/02 03:03:20;;;;;;;37.57;21.03;;;;;;;;;;5034113;28;20503;-62
2021/07/02 03:05:49;;;;;;;30.20;20.10;;;;;;;;;;5034090;28;20560;-62
2021/07/02 03:08:16;;;;;;;31.53;20.07;;;;;;;;;;5034487;28;20437;-62
2021/07/02 03:10:43;;;;;;;27.00;20.67;;;;;;;;;;5034223;28;20445;-62
2021/07/02 03:13:10;;;;;;;31.17;20.97;;;;;;;;;;5034117;28;20519;-62
2021/07/02 03:15:39;;;;;;;36.17;22.20;;;;;;;;;;5034075;28;20452;-64
2021/07/02 03:18:06;;;;;;;33.60;21.17;;;;;;;;;;5034010;28;20449;-63
2021/07/02 03:20:33;;;;;;;37.43;20.97;;;;;;;;;;5033708;28;20449;-61
2021/07/02 03:23:02;;;;;;;35.43;20.60;;;;;;;;;;5033902;28;20501;-63
2021/07/02 03:25:29;;;;;;;34.77;21.67;;;;;;;;;;5033811;28;20483;-63
2021/07/02 03:27:56;;;;;;;39.10;21.17;;;;;;;;;;5033825;28;20490;-62
2021/07/02 03:30:24;;;;;;;37.17;21.00;;;;;;;;;;5033469;28;20859;-62
2021/07/02 03:32:51;;;;;;;34.03;23.50;;;;;;;;;;5033753;28;20813;-62
2021/07/02 03:35:18;;;;;;;34.83;20.40;;;;;;;;;;5033660;28;20489;-62
2021/07/02 03:37:45;;;;;;;32.70;21.70;;;;;;;;;;5033211;28;20984;-62
2021/07/02 03:40:15;;;;;;;43.13;21.83;;;;;;;;;;5033647;28;20453;-62
2021/07/02 03:42:42;;;;;;;35.50;21.03;;;;;;;;;;5033259;28;20933;-62
2021/07/02 03:45:10;;;;;;;30.30;19.70;;;;;;;;;;5033577;28;20453;-62
2021/07/02 03:47:37;;;;;;;37.50;20.97;;;;;;;;;;5033551;28;20511;-62
2021/07/02 03:50:05;;;;;;;32.80;20.93;;;;;;;;;;5033949;28;20867;-62
2021/07/02 03:52:32;;;;;;;34.97;19.87;;;;;;;;;;5033593;28;20444;-61
2021/07/02 03:55:00;;;;;;;35.03;20.43;;;;;;;;;;5033971;28;20480;-63
2021/07/02 03:57:28;;;;;;;34.40;21.93;;;;;;;;;;5034564;28;20555;-62
2021/07/02 03:59:56;;;;;;;34.60;21.80;;;;;;;;;;5034526;28;21007;-62
2021/07/02 04:02:23;;;;;;;38.33;21.57;;;;;;;;;;5034191;28;20448;-62
2021/07/02 04:08:17;;;;;;;35.33;21.47;;;;;;;;;;5093088;28;20549;-63
2021/07/02 04:10:44;;;;;;;30.73;18.97;;;;;;;;;;5093049;28;20519;-62
2021/07/02 04:13:12;;;;;;;38.03;20.37;;;;;;;;;;5091873;28;20439;-63
2021/07/02 04:15:39;;;;;;;32.97;20.90;;;;;;;;;;5091500;28;20456;-61
2021/07/02 04:18:08;;;;;;;37.53;19.90;;;;;;;;;;5092651;28;20834;-64
2021/07/02 04:20:37;;;;;;;37.47;18.80;;;;;;;;;;5091021;28;20482;-63
2021/07/02 04:23:04;;;;;;;36.50;20.83;;;;;;;;;;5090926;28;20507;-63
2021/07/02 04:25:33;;;;;;;43.77;20.70;;;;;;;;;;5090633;28;20455;-63
2021/07/02 04:28:00;;;;;;;37.77;19.53;;;;;;;;;;5090254;28;21003;-63
2021/07/02 04:30:27;;;;;;;32.20;19.23;;;;;;;;;;5090689;28;20861;-63
2021/07/02 04:32:54;;;;;;;40.47;19.60;;;;;;;;;;5090182;28;21011;-63
2021/07/02 04:35:22;;;;;;;36.90;18.60;;;;;;;;;;5090409;28;20453;-63
2021/07/02 04:37:49;;;;;;;34.37;20.00;;;;;;;;;;5090571;28;20446;-63
2021/07/02 04:40:16;;;;;;;35.33;19.60;;;;;;;;;;5090308;28;20446;-64
2021/07/02 04:42:45;;;;;;;30.70;19.47;;;;;;;;;;5090025;28;20435;-63
2021/07/02 04:45:13;;;;;;;26.50;18.53;;;;;;;;;;5090138;28;20541;-63
2021/07/02 04:47:40;;;;;;;29.80;19.27;;;;;;;;;;5089541;28;20474;-63
2021/07/02 04:50:08;;;;;;;23.00;17.57;;;;;;;;;;5090126;28;20435;-63
2021/07/02 04:52:35;;;;;;;30.47;16.80;;;;;;;;;;5089720;28;20929;-63
2021/07/02 04:55:03;;;;;;;30.10;17.87;;;;;;;;;;5089715;28;20446;-62
2021/07/02 04:57:30;;;;;;;33.13;17.43;;;;;;;;;;5091662;28;20462;-64
2021/07/02 05:00:01;;;;;;;29.53;17.90;;;;;;;;;;5089910;28;20447;-63
2021/07/02 05:02:28;;;;;;;30.27;18.23;;;;;;;;;;5089841;28;20435;-61
2021/07/02 05:04:55;;;;;;;32.10;16.80;;;;;;;;;;5089825;28;20446;-62
2021/07/02 05:07:23;;;;;;;22.57;15.60;;;;;;;;;;5089319;28;20535;-63
2021/07/02 05:09:50;;;;;;;29.77;17.60;;;;;;;;;;5089622;28;21003;-63
2021/07/02 05:12:17;;;;;;;32.17;17.07;;;;;;;;;;5089619;28;20929;-63
2021/07/02 05:14:44;;;;;;;28.13;16.87;;;;;;;;;;5089668;28;20442;-63
2021/07/02 05:17:13;;;;;;;29.30;17.40;;;;;;;;;;5089707;28;20512;-64
2021/07/02 05:19:41;;;;;;;28.27;18.90;;;;;;;;;;5076004;28;20492;-63
2021/07/02 05:22:13;;;;;;;28.40;17.97;;;;;;;;;;5075763;28;20447;-64
2021/07/02 05:24:40;;;;;;;26.63;16.07;;;;;;;;;;5075939;28;20435;-64
2021/07/02 05:27:08;;;;;;;25.93;17.90;;;;;;;;;;5075270;28;20561;-63
2021/07/02 05:29:35;;;;;;;26.90;17.40;;;;;;;;;;5075818;28;20443;-63
2021/07/02 05:32:02;;;;;;;29.23;16.80;;;;;;;;;;5075703;28;20455;-63
2021/07/02 05:34:31;;;;;;;29.07;18.40;;;;;;;;;;5075613;28;20927;-64
2021/07/02 05:36:58;;;;;;;23.33;15.17;;;;;;;;;;5075619;28;20825;-63
2021/07/02 05:39:26;;;;;;;24.13;17.13;;;;;;;;;;5075652;28;20443;-65
2021/07/02 05:41:53;;;;;;;29.33;17.60;;;;;;;;;;5075747;28;20439;-66
2021/07/02 05:44:20;;;;;;;26.43;17.63;;;;;;;;;;5075651;28;20447;-64
2021/07/02 05:46:47;;;;;;;32.23;19.13;;;;;;;;;;5075390;28;20483;-63
2021/07/02 05:49:15;;;;;;;31.00;18.87;;;;;;;;;;5075100;28;20447;-64
2021/07/02 05:51:44;;;;;;;29.13;18.30;;;;;;;;;;5075128;28;20451;-64
2021/07/02 05:54:12;;;;;;;23.90;17.40;;;;;;;;;;5075006;28;20509;-63
2021/07/02 05:56:39;;;;;;;25.53;17.30;;;;;;;;;;5075438;28;20499;-65
2021/07/02 05:59:07;;;;;;;23.60;14.97;;;;;;;;;;5074998;28;20903;-64
2021/07/02 06:01:34;;;;;;;18.37;14.57;;;;;;;;;;5075205;28;20439;-64
2021/07/02 06:04:01;;;;;;;19.57;14.10;;;;;;;;;;5075058;28;20493;-64
2021/07/02 06:06:28;;;;;;;21.20;15.03;;;;;;;;;;5074932;28;20479;-64
2021/07/02 06:08:57;;;;;;;21.60;15.10;;;;;;;;;;5074876;28;20541;-63
2021/07/02 06:11:25;;;;;;;20.07;15.93;;;;;;;;;;5074903;28;20454;-65
2021/07/02 06:13:52;;;;;;;21.13;15.20;;;;;;;;;;5074776;28;20443;-65
2021/07/02 06:16:19;;;;;;;25.37;15.90;;;;;;;;;;5075055;28;20467;-63
2021/07/02 06:18:47;;;;;;;19.70;15.80;;;;;;;;;;5074984;28;20568;-63
2021/07/02 06:21:14;;;;;;;22.30;15.40;;;;;;;;;;5074594;28;20443;-65
2021/07/02 06:23:41;;;;;;;21.70;15.10;;;;;;;;;;5075019;28;20489;-63
2021/07/02 06:26:10;;;;;;;26.63;16.97;;;;;;;;;;5074407;28;20886;-63
2021/07/02 06:28:38;;;;;;;28.23;16.90;;;;;;;;;;5074932;28;20561;-62
2021/07/02 06:31:05;;;;;;;25.93;16.40;;;;;;;;;;5074862;28;20538;-64
2021/07/02 06:33:32;;;;;;;25.40;15.93;;;;;;;;;;5074973;28;20447;-64
2021/07/02 06:35:59;;;;;;;18.63;13.70;;;;;;;;;;5074684;28;20463;-62
2021/07/02 06:38:27;;;;;;;22.40;14.80;;;;;;;;;;5074720;28;20473;-64
2021/07/02 06:40:55;;;;;;;23.67;15.30;;;;;;;;;;5074220;28;20504;-62
2021/07/02 06:43:23;;;;;;;21.23;15.37;;;;;;;;;;5074316;28;20953;-64
2021/07/02 06:45:51;;;;;;;26.07;15.77;;;;;;;;;;5074053;28;20974;-64
2021/07/02 06:48:18;;;;;;;21.17;15.47;;;;;;;;;;5074161;28;20479;-63
2021/07/02 06:50:46;;;;;;;25.83;15.60;;;;;;;;;;5074350;28;20451;-65
2021/07/02 06:53:14;;;;;;;22.10;15.13;;;;;;;;;;5073675;28;20944;-65
2021/07/02 06:55:42;;;;;;;23.37;15.83;;;;;;;;;;5073615;28;20471;-64
2021/07/02 06:58:10;;;;;;;22.30;15.20;;;;;;;;;;5073680;28;20447;-62
2021/07/02 07:00:39;;;;;;;24.50;15.13;;;;;;;;;;5073750;28;20545;-65
2021/07/02 07:03:07;;;;;;;20.60;14.87;;;;;;;;;;5074107;28;20529;-64
2021/07/02 07:05:34;;;;;;;20.90;14.30;;;;;;;;;;5073875;28;20876;-63
2021/07/02 07:08:02;;;;;;;21.70;13.93;;;;;;;;;;5073452;28;20490;-64
2021/07/02 07:10:31;;;;;;;18.63;14.10;;;;;;;;;;5073919;28;20443;-64
2021/07/02 07:12:58;;;;;;;16.50;12.80;;;;;;;;;;5073930;28;20501;-63
2021/07/02 07:15:26;;;;;;;18.53;13.97;;;;;;;;;;5073436;28;20448;-64
2021/07/02 07:17:55;;;;;;;18.23;13.50;;;;;;;;;;5073547;28;20476;-64
2021/07/02 07:20:22;;;;;;;19.90;12.70;;;;;;;;;;5073586;28;20451;-64
2021/07/02 07:22:50;;;;;;;17.20;13.50;;;;;;;;;;5073364;28;20439;-64
2021/07/02 07:25:20;;;;;;;20.53;13.10;;;;;;;;;;5073221;28;20450;-63
2021/07/02 07:27:47;;;;;;;20.17;12.67;;;;;;;;;;5073419;28;20489;-63
2021/07/02 07:30:15;;;;;;;17.97;13.27;;;;;;;;;;5073194;28;20459;-64
2021/07/02 07:32:42;;;;;;;17.70;12.00;;;;;;;;;;5073508;28;20443;-64
2021/07/02 07:35:18;;;;;;;15.97;11.80;;;;;;;;;;5073455;28;20537;-63
2021/07/02 07:37:47;;;;;;;19.60;11.53;;;;;;;;;;5074993;28;20458;-61
2021/07/02 07:40:15;;;;;;;16.53;11.90;;;;;;;;;;5073410;28;20874;-61
2021/07/02 07:42:42;;;;;;;20.13;12.90;;;;;;;;;;5073400;28;20451;-61
2021/07/02 07:45:10;;;;;;;18.07;11.33;;;;;;;;;;5072942;28;20939;-62
2021/07/02 07:47:37;;;;;;;18.80;12.00;;;;;;;;;;5072833;28;20536;-61
2021/07/02 07:50:08;;;;;;;22.83;12.67;;;;;;;;;;5072980;28;20500;-61
2021/07/02 07:52:42;;;;;;;16.60;12.27;;;;;;;;;;5073138;28;20455;-60
2021/07/02 07:55:10;;;;;;;20.47;13.10;;;;;;;;;;5073383;28;20459;-61
2021/07/02 07:57:37;;;;;;;21.80;13.50;;;;;;;;;;5072932;28;20463;-61
2021/07/02 08:00:05;;;;;;;15.60;11.53;;;;;;;;;;5073481;28;20443;-62
2021/07/02 08:02:32;;;;;;;16.80;11.50;;;;;;;;;;5073528;28;20451;-59
2021/07/02 08:04:59;;;;;;;20.20;13.27;;;;;;;;;;5073496;28;20504;-60
2021/07/02 08:07:26;;;;;;;17.90;11.10;;;;;;;;;;5073712;28;20487;-60
2021/07/02 08:09:55;;;;;;;17.70;13.17;;;;;;;;;;5075105;28;20493;-60
2021/07/02 08:12:22;;;;;;;17.23;12.17;;;;;;;;;;5073893;28;20528;-60
2021/07/02 08:14:49;;;;;;;17.63;12.83;;;;;;;;;;5073647;28;20516;-60
2021/07/02 08:17:17;;;;;;;19.80;11.70;;;;;;;;;;5073469;28;20978;-61
2021/07/02 08:19:44;;;;;;;20.47;12.07;;;;;;;;;;5073472;28;20533;-61
2021/07/02 08:22:11;;;;;;;22.63;11.90;;;;;;;;;;5073461;28;20505;-59
2021/07/02 08:24:39;;;;;;;22.73;11.47;;;;;;;;;;5073862;28;20814;-59
2021/07/02 08:27:08;;;;;;;18.57;11.87;;;;;;;;;;5072922;28;20536;-59
2021/07/02 08:29:34;;;;;;;14.50;11.50;;;;;;;;;;5072793;28;20514;-60
2021/07/02 08:32:02;;;;;;;19.20;11.53;;;;;;;;;;5072553;28;20459;-61
2021/07/02 08:34:29;;;;;;;17.20;10.50;;;;;;;;;;5072639;28;20446;-60
2021/07/02 08:36:56;;;;;;;16.10;10.33;;;;;;;;;;5072486;28;20462;-62
2021/07/02 08:39:23;;;;;;;17.93;10.60;;;;;;;;;;5072300;28;20955;-62
2021/07/02 08:41:51;;;;;;;15.47;11.00;;;;;;;;;;5072298;28;20469;-59
2021/07/02 08:44:19;;;;;;;16.77;11.03;;;;;;;;;;5072617;28;20438;-59
2021/07/02 08:46:47;;;;;;;17.37;11.30;;;;;;;;;;5072329;28;20458;-63
2021/07/02 08:49:15;;;;;;;21.23;10.47;;;;;;;;;;5072236;28;20482;-60
2021/07/02 08:51:42;;;;;;;19.93;11.10;;;;;;;;;;5073187;28;20451;-62
2021/07/02 08:54:14;;;;;;;15.03;9.30;;;;;;;;;;5074947;28;20443;-63
2021/07/02 08:56:55;;;;;;;11.10;9.10;;;;;;;;;;5076734;28;20460;-61
2021/07/02 08:59:24;;;;;;;13.30;8.90;;;;;;;;;;5076537;28;20419;-62
2021/07/02 09:01:51;;;;;;;17.43;8.37;;;;;;;;;;5076022;28;20946;-63
2021/07/02 09:04:19;;;;;;;10.97;8.40;;;;;;;;;;5076236;28;20443;-62
2021/07/02 09:07:00;;;;;;;12.87;9.00;;;;;;;;;;5076037;28;20475;-61
2021/07/02 09:09:42;;;;;;;9.20;7.00;;;;;;;;;;5075678;28;20536;-62
2021/07/02 09:12:10;;;;;;;12.13;6.43;;;;;;;;;;5076274;28;20421;-63
2021/07/02 09:14:38;;;;;;;10.53;7.70;;;;;;;;;;5076124;28;20462;-63
2021/07/02 09:17:09;;;;;;;8.10;6.70;;;;;;;;;;5075792;28;20466;-63
2021/07/02 09:19:37;;;;;;;14.43;8.13;;;;;;;;;;5075750;28;20510;-62
2021/07/02 09:22:17;;;;;;;11.53;7.90;;;;;;;;;;5076255;28;20451;-63
2021/07/02 09:24:45;;;;;;;14.63;9.97;;;;;;;;;;5075990;28;20495;-61
2021/07/02 09:27:26;;;;;;;10.63;8.30;;;;;;;;;;5075824;28;20463;-62
2021/07/02 09:30:05;;;;;;;10.60;8.40;;;;;;;;;;5075828;28;20496;-62
2021/07/02 09:32:33;;;;;;;15.60;9.23;;;;;;;;;;5075781;28;20504;-61
2021/07/02 09:35:01;;;;;;;15.00;9.43;;;;;;;;;;5075887;28;20443;-64
2021/07/02 09:37:30;;;;;;;12.00;8.97;;;;;;;;;;5075595;28;20468;-62
2021/07/02 09:39:57;;;;;;;11.77;8.33;;;;;;;;;;5075103;28;20444;-62
2021/07/02 09:42:26;;;;;;;10.70;8.80;;;;;;;;;;5075654;28;20497;-63
2021/07/02 09:45:04;;;;;;;13.33;9.60;;;;;;;;;;5076262;28;21005;-63
2021/07/02 09:47:32;;;;;;;13.87;10.50;;;;;;;;;;5075471;28;20529;-62
2021/07/02 09:50:16;;;;;;;10.07;8.37;;;;;;;;;;5075451;28;20490;-62
2021/07/02 09:52:45;;;;;;;10.70;8.20;;;;;;;;;;5075117;28;20922;-62
2021/07/02 09:55:13;;;;;;;10.00;8.30;;;;;;;;;;5075330;28;20457;-61
2021/07/02 09:57:40;;;;;;;10.10;8.63;;;;;;;;;;5075887;28;20466;-61
2021/07/02 10:00:11;;;;;;;12.73;8.87;;;;;;;;;;5075156;28;20946;-63
2021/07/02 10:02:38;;;;;;;12.37;8.33;;;;;;;;;;5075432;28;20528;-62
2021/07/02 10:05:06;;;;;;;13.60;9.50;;;;;;;;;;5076501;28;20945;-63
2021/07/02 10:07:34;;;;;;;11.97;9.10;;;;;;;;;;5077064;28;20497;-61
2021/07/02 10:10:02;;;;;;;11.73;9.07;;;;;;;;;;5077155;28;20508;-63
2021/07/02 10:12:29;;;;;;;14.47;9.43;;;;;;;;;;5079561;28;20518;-62
2021/07/02 10:14:56;;;;;;;14.60;10.53;;;;;;;;;;5079564;28;20503;-64
2021/07/02 10:17:28;;;;;;;12.90;9.27;;;;;;;;;;5078437;28;20995;-63
2021/07/02 10:19:57;;;;;;;12.20;9.20;;;;;;;;;;5078826;28;20531;-61
2021/07/02 10:22:25;;;;;;;10.17;9.17;;;;;;;;;;5080172;28;20503;-63
2021/07/02 10:24:53;;;;;;;13.40;9.77;;;;;;;;;;5080456;28;20497;-61
2021/07/02 10:27:21;;;;;;;15.53;10.80;;;;;;;;;;5078922;28;20471;-62
2021/07/02 10:29:49;;;;;;;13.73;10.47;;;;;;;;;;5078684;28;20590;-63
2021/07/02 10:32:19;;;;;;;15.27;10.30;;;;;;;;;;5075900;28;20994;-63
2021/07/02 10:34:48;;;;;;;13.70;10.47;;;;;;;;;;5074595;28;20451;-62
2021/07/02 10:37:15;;;;;;;12.33;10.07;;;;;;;;;;5074584;28;20460;-62
2021/07/02 10:39:46;;;;;;;11.73;10.17;;;;;;;;;;5074403;28;20492;-64
2021/07/02 10:42:14;;;;;;;13.63;11.30;;;;;;;;;;5074497;28;20857;-63
2021/07/02 10:44:56;;;;;;;11.97;10.13;;;;;;;;;;5074204;28;20534;-63
2021/07/02 10:47:23;;;;;;;11.67;10.50;;;;;;;;;;5075825;28;20518;-62
2021/07/02 10:49:53;;;;;;;18.60;12.27;;;;;;;;;;5074474;28;20483;-64
2021/07/02 10:52:21;;;;;;;12.27;10.37;;;;;;;;;;5074832;28;20450;-62
2021/07/02 10:54:49;;;;;;;14.67;9.90;;;;;;;;;;5074931;28;20542;-62
2021/07/02 10:57:19;;;;;;;13.37;9.77;;;;;;;;;;5074366;28;20522;-63
2021/07/02 11:00:04;;;;;;;11.93;9.70;;;;;;;;;;5074633;28;20540;-63
2021/07/02 11:02:31;;;;;;;13.13;9.20;;;;;;;;;;5064698;28;20511;-63
2021/07/02 11:05:00;;;;;;;9.73;8.73;;;;;;;;;;5074925;28;20493;-62
2021/07/02 11:07:41;;;;;;;10.40;8.13;;;;;;;;;;5074097;28;20479;-63
2021/07/02 11:10:10;;;;;;;10.60;8.40;;;;;;;;;;5074509;28;20827;-63
2021/07/02 11:12:38;;;;;;;10.30;7.97;;;;;;;;;;5074152;28;20458;-62
2021/07/02 11:15:12;;;;;;;11.70;9.60;;;;;;;;;;5074532;28;20482;-62
2021/07/02 11:17:40;;;;;;;11.90;9.30;;;;;;;;;;5073380;28;20465;-62
2021/07/02 11:20:26;;;;;;;10.00;9.00;;;;;;;;;;5074597;28;20735;-63
2021/07/02 11:22:57;;;;;;;10.00;7.90;;;;;;;;;;5074489;28;20776;-61
2021/07/02 11:25:26;;;;;;;10.40;9.40;;;;;;;;;;5074228;28;20430;-61
2021/07/02 11:27:59;;;;;;;11.77;9.07;;;;;;;;;;5074682;28;20496;-62
2021/07/02 11:30:29;;;;;;;11.60;9.17;;;;;;;;;;5075062;28;20488;-61
2021/07/02 11:32:57;;;;;;;12.73;9.23;;;;;;;;;;5075019;28;20445;-63
2021/07/02 11:35:26;;;;;;;11.30;9.40;;;;;;;;;;5073745;28;20444;-63
2021/07/02 11:38:06;;;;;;;12.60;10.40;;;;;;;;;;5074987;28;20454;-63
2021/07/02 11:40:34;;;;;;;14.43;9.87;;;;;;;;;;5076242;28;20427;-62
2021/07/02 11:43:01;;;;;;;12.17;9.50;;;;;;;;;;5075801;28;20930;-61
2021/07/02 11:45:38;;;;;;;11.50;10.30;;;;;;;;;;5074720;28;20452;-64
2021/07/02 11:48:06;;;;;;;10.33;9.10;;;;;;;;;;5074970;28;20457;-63
2021/07/02 11:50:40;;;;;;;10.43;8.90;;;;;;;;;;5074566;28;20527;-63
2021/07/02 11:53:09;;;;;;;13.03;9.57;;;;;;;;;;5073873;28;20484;-63
2021/07/02 11:55:36;;;;;;;14.97;9.77;;;;;;;;;;5072994;28;20445;-63
2021/07/02 11:58:16;;;;;;;14.33;10.13;;;;;;;;;;5072809;28;20495;-62
2021/07/02 12:00:43;;;;;;;12.97;9.47;;;;;;;;;;5073218;28;20539;-62
2021/07/02 12:03:11;;;;;;;12.70;9.30;;;;;;;;;;5073410;28;20854;-63
2021/07/02 12:05:38;;;;;;;12.83;9.50;;;;;;;;;;5072871;28;20505;-61
2021/07/02 12:08:05;;;;;;;11.20;9.67;;;;;;;;;;5073384;28;20460;-65
2021/07/02 12:10:34;;;;;;;11.20;9.20;;;;;;;;;;5073504;28;20480;-61
2021/07/02 12:13:08;;;;;;;11.80;9.97;;;;;;;;;;5073674;28;20451;-64
2021/07/02 12:15:36;;;;;;;10.50;9.40;;;;;;;;;;5073263;28;20452;-64
2021/07/02 12:18:05;;;;;;;11.83;10.57;;;;;;;;;;5073536;28;20452;-64
2021/07/02 12:20:32;;;;;;;10.93;9.83;;;;;;;;;;5074244;28;20453;-62
2021/07/02 12:23:03;;;;;;;11.20;9.70;;;;;;;;;;5073454;28;20448;-63
2021/07/02 12:25:32;;;;;;;11.23;10.13;;;;;;;;;;5072874;28;20506;-62
2021/07/02 12:28:01;;;;;;;10.87;9.77;;;;;;;;;;5073446;28;20481;-64
2021/07/02 12:30:28;;;;;;;16.33;11.40;;;;;;;;;;5076835;28;20892;-63
2021/07/02 12:32:57;;;;;;;12.83;11.10;;;;;;;;;;5077195;28;20527;-62
2021/07/02 12:35:24;;;;;;;13.83;10.43;;;;;;;;;;5076241;28;20508;-64
2021/07/02 12:37:51;;;;;;;12.27;10.30;;;;;;;;;;5076801;28;20502;-63
2021/07/02 12:40:19;;;;;;;13.13;10.23;;;;;;;;;;5076589;28;20456;-64
2021/07/02 12:42:46;;;;;;;11.20;10.03;;;;;;;;;;5076574;28;20518;-61
2021/07/02 12:45:16;;;;;;;12.70;11.17;;;;;;;;;;5076733;28;20510;-63
2021/07/02 12:47:44;;;;;;;13.60;12.10;;;;;;;;;;5077462;28;20476;-62
2021/07/02 12:50:17;;;;;;;12.17;10.93;;;;;;;;;;5077731;28;20484;-63
2021/07/02 12:55:33;;;;;;;15.33;12.50;;;;;;;;;;5076970;28;20409;-63
2021/07/02 12:58:00;;;;;;;13.40;12.00;;;;;;;;;;5076341;28;20503;-63
2021/07/02 13:00:38;;;;;;;12.20;11.00;;;;;;;;;;5079266;28;20464;-63
2021/07/02 13:03:05;;;;;;;12.07;10.93;;;;;;;;;;5078747;28;20427;-62
2021/07/02 13:05:34;;;;;;;14.27;11.43;;;;;;;;;;5078742;28;20902;-63
2021/07/02 13:08:01;;;;;;;12.20;10.93;;;;;;;;;;5078306;28;20458;-62
2021/07/02 13:10:33;;;;;;;13.03;11.73;;;;;;;;;;5078345;28;20478;-63
2021/07/02 13:13:04;;;;;;;15.20;11.53;;;;;;;;;;5078570;28;20467;-62
2021/07/02 13:15:32;;;;;;;14.47;11.03;;;;;;;;;;5078809;28;20470;-63
2021/07/02 13:18:01;;;;;;;13.73;10.23;;;;;;;;;;5078949;28;20937;-63
2021/07/02 13:20:41;;;;;;;15.33;11.27;;;;;;;;;;5077776;28;20454;-64
2021/07/02 13:23:09;;;;;;;14.03;11.07;;;;;;;;;;5076208;28;20438;-64
2021/07/02 13:25:36;;;;;;;13.13;10.00;;;;;;;;;;5076118;28;20934;-63
2021/07/02 13:28:03;;;;;;;14.87;11.17;;;;;;;;;;5075955;28;20458;-63
2021/07/02 13:30:31;;;;;;;12.03;10.57;;;;;;;;;;5076061;28;20482;-63
2021/07/02 13:33:10;;;;;;;12.40;11.13;;;;;;;;;;5075936;28;20447;-64
2021/07/02 13:35:38;;;;;;;13.90;12.50;;;;;;;;;;5075989;28;20869;-63
2021/07/02 13:38:08;;;;;;;13.40;11.97;;;;;;;;;;5077133;28;20451;-63
2021/07/02 13:40:37;;;;;;;16.20;11.80;;;;;;;;;;5076558;28;20416;-62
2021/07/02 13:43:05;;;;;;;14.80;11.17;;;;;;;;;;5075933;28;20462;-63
2021/07/02 13:45:32;;;;;;;12.83;11.47;;;;;;;;;;5075354;28;20441;-63
2021/07/02 13:48:11;;;;;;;13.53;11.03;;;;;;;;;;5075991;28;20440;-65
2021/07/02 13:50:43;;;;;;;14.13;11.70;;;;;;;;;;5078520;28;20485;-64
2021/07/02 13:53:17;;;;;;;12.57;11.20;;;;;;;;;;5076522;28;20435;-64
2021/07/02 13:55:44;;;;;;;13.47;11.47;;;;;;;;;;5075557;28;20535;-63
2021/07/02 13:58:12;;;;;;;14.10;12.60;;;;;;;;;;5075672;28;20442;-63
2021/07/02 14:00:40;;;;;;;15.00;12.80;;;;;;;;;;5075290;28;20449;-63
2021/07/02 14:03:07;;;;;;;14.43;11.37;;;;;;;;;;5075280;28;20477;-63
2021/07/02 14:05:36;;;;;;;12.60;11.30;;;;;;;;;;5075327;28;20858;-64
2021/07/02 14:08:04;;;;;;;16.63;12.57;;;;;;;;;;5075218;28;20469;-64
2021/07/02 14:10:31;;;;;;;14.50;12.07;;;;;;;;;;5074716;28;20484;-63
2021/07/02 14:12:59;;;;;;;15.93;11.17;;;;;;;;;;5075236;28;20454;-62
2021/07/02 14:15:26;;;;;;;13.37;11.60;;;;;;;;;;5075092;28;20445;-64
2021/07/02 14:17:54;;;;;;;13.07;11.77;;;;;;;;;;5074475;28;20942;-63
2021/07/02 14:20:21;;;;;;;12.90;11.50;;;;;;;;;;5074716;28;20515;-65
2021/07/02 14:22:52;;;;;;;13.93;11.63;;;;;;;;;;5074870;28;20507;-64
2021/07/02 14:25:20;;;;;;;16.27;13.00;;;;;;;;;;5075364;28;20430;-64
2021/07/02 14:27:48;;;;;;;11.60;10.57;;;;;;;;;;5074815;28;20451;-64
2021/07/02 14:30:15;;;;;;;12.97;11.73;;;;;;;;;;5075244;28;20486;-64
2021/07/02 14:32:43;;;;;;;11.60;10.40;;;;;;;;;;5075160;28;20523;-63